sensor_id;sensor_type;location;lat;lon;timestamp;pressure;altitude;pressure_sealevel;temperature;humidity
57904;BME280;43720;47.462;19.030;2023-03-01T04:56:24;101301.06;;;5.77;62.85
57904;BME280;43720;47.462;19.030;2023-03-01T04:59:27;101292.59;;;5.63;63.02
57904;BME280;43720;47.462;19.030;2023-03-01T05:02:29;101287.84;;;5.55;63.03
57904;BME280;43720;47.462;19.030;2023-03-01T05:05:34;101294.47;;;5.66;63.19
57904;BME280;43720;47.462;19.030;2023-03-01T05:08:41;101294.37;;;5.64;62.76
57904;BME280;43720;47.462;19.030;2023-03-01T05:11:43;101295.13;;;5.62;62.78
57904;BME280;43720;47.462;19.030;2023-03-01T05:14:46;101304.16;;;5.70;62.95
57904;BME280;43720;47.462;19.030;2023-03-01T05:17:49;101303.78;;;5.80;62.93
57904;BME280;43720;47.462;19.030;2023-03-01T05:20:55;101305.34;;;5.77;62.79
57904;BME280;43720;47.462;19.030;2023-03-01T05:24:00;101309.06;;;5.82;62.98
57904;BME280;43720;47.462;19.030;2023-03-01T05:27:03;101310.63;;;5.78;62.53
57904;BME280;43720;47.462;19.030;2023-03-01T05:30:06;101309.94;;;5.82;63.30
57904;BME280;43720;47.462;19.030;2023-03-01T05:33:18;101302.16;;;5.82;62.15
57904;BME280;43720;47.462;19.030;2023-03-01T05:36:21;101303.88;;;5.82;62.20
57904;BME280;43720;47.462;19.030;2023-03-01T05:39:26;101303.06;;;5.83;62.28
57904;BME280;43720;47.462;19.030;2023-03-01T05:42:29;101300.47;;;5.83;61.89
57904;BME280;43720;47.462;19.030;2023-03-01T05:45:32;101301.91;;;5.94;61.82
57904;BME280;43720;47.462;19.030;2023-03-01T05:48:35;101297.34;;;5.90;61.77
57904;BME280;43720;47.462;19.030;2023-03-01T05:51:37;101303.22;;;5.86;62.18
57904;BME280;43720;47.462;19.030;2023-03-01T05:54:39;101308.63;;;5.91;61.90
57904;BME280;43720;47.462;19.030;2023-03-01T05:57:41;101310.84;;;5.83;62.51
57904;BME280;43720;47.462;19.030;2023-03-01T06:00:46;101314.81;;;5.93;62.42
57904;BME280;43720;47.462;19.030;2023-03-01T06:03:49;101311.47;;;5.95;62.36
57904;BME280;43720;47.462;19.030;2023-03-01T06:06:51;101316.59;;;5.94;62.64
57904;BME280;43720;47.462;19.030;2023-03-01T06:09:54;101314.41;;;6.03;62.45
57904;BME280;43720;47.462;19.030;2023-03-01T06:12:56;101312.59;;;6.00;62.74
57904;BME280;43720;47.462;19.030;2023-03-01T06:15:59;101312.81;;;6.05;62.51
57904;BME280;43720;47.462;19.030;2023-03-01T06:19:01;101317.69;;;6.17;61.81
57904;BME280;43720;47.462;19.030;2023-03-01T06:22:04;101321.06;;;6.16;62.23
57904;BME280;43720;47.462;19.030;2023-03-01T06:25:07;101316.91;;;6.19;61.97
57904;BME280;43720;47.462;19.030;2023-03-01T06:28:10;101322.19;;;6.21;62.21
57904;BME280;43720;47.462;19.030;2023-03-01T06:31:12;101319.81;;;6.25;61.87
57904;BME280;43720;47.462;19.030;2023-03-01T06:34:15;101325.91;;;6.26;61.86
57904;BME280;43720;47.462;19.030;2023-03-01T06:37:17;101327.75;;;6.28;61.50
57904;BME280;43720;47.462;19.030;2023-03-01T06:40:19;101326.62;;;6.23;61.46
57904;BME280;43720;47.462;19.030;2023-03-01T06:43:23;101345.06;;;6.10;61.16
57904;BME280;43720;47.462;19.030;2023-03-01T06:46:25;101343.91;;;6.23;60.81
57904;BME280;43720;47.462;19.030;2023-03-01T06:49:29;101336.59;;;6.32;60.31
57904;BME280;43720;47.462;19.030;2023-03-01T06:52:32;101333.62;;;6.24;60.23
57904;BME280;43720;47.462;19.030;2023-03-01T06:55:34;101335.34;;;6.24;60.07
57904;BME280;43720;47.462;19.030;2023-03-01T06:58:37;101334.72;;;6.29;59.97
57904;BME280;43720;47.462;19.030;2023-03-01T07:01:39;101340.44;;;6.22;60.51
57904;BME280;43720;47.462;19.030;2023-03-01T07:04:42;101339.69;;;6.25;60.27
57904;BME280;43720;47.462;19.030;2023-03-01T07:07:44;101339.03;;;6.29;60.30
57904;BME280;43720;47.462;19.030;2023-03-01T07:10:47;101344.81;;;6.23;60.21
57904;BME280;43720;47.462;19.030;2023-03-01T07:13:49;101337.25;;;6.28;60.22
57904;BME280;43720;47.462;19.030;2023-03-01T07:16:52;101337.63;;;6.35;60.61
57904;BME280;43720;47.462;19.030;2023-03-01T07:19:54;101333.16;;;6.70;59.36
57904;BME280;43720;47.462;19.030;2023-03-01T07:22:57;101328.03;;;6.91;58.81
57904;BME280;43720;47.462;19.030;2023-03-01T07:26:00;101327.88;;;6.88;57.97
57904;BME280;43720;47.462;19.030;2023-03-01T07:29:04;101329.09;;;7.16;57.89
57904;BME280;43720;47.462;19.030;2023-03-01T07:32:07;101337.63;;;7.32;57.32
57904;BME280;43720;47.462;19.030;2023-03-01T07:35:09;101330.25;;;7.22;56.95
57904;BME280;43720;47.462;19.030;2023-03-01T07:38:12;101327.16;;;7.31;56.95
57904;BME280;43720;47.462;19.030;2023-03-01T07:41:14;101332.88;;;7.43;57.01
57904;BME280;43720;47.462;19.030;2023-03-01T07:44:16;101328.44;;;7.41;56.26
57904;BME280;43720;47.462;19.030;2023-03-01T07:47:19;101327.59;;;7.42;56.22
57904;BME280;43720;47.462;19.030;2023-03-01T07:50:22;101330.38;;;7.25;57.00
57904;BME280;43720;47.462;19.030;2023-03-01T07:53:24;101321.03;;;7.09;56.81
57904;BME280;43720;47.462;19.030;2023-03-01T07:56:26;101317.22;;;7.42;56.75
57904;BME280;43720;47.462;19.030;2023-03-01T07:59:29;101317.78;;;7.55;55.96
57904;BME280;43720;47.462;19.030;2023-03-01T08:02:31;101312.13;;;7.66;56.72
57904;BME280;43720;47.462;19.030;2023-03-01T08:05:34;101304.78;;;7.55;56.13
57904;BME280;43720;47.462;19.030;2023-03-01T08:08:36;101308.19;;;7.54;56.58
57904;BME280;43720;47.462;19.030;2023-03-01T08:11:39;101318.00;;;7.20;57.14
57904;BME280;43720;47.462;19.030;2023-03-01T08:14:41;101316.84;;;7.32;56.21
57904;BME280;43720;47.462;19.030;2023-03-01T08:17:44;101306.00;;;7.23;56.83
57904;BME280;43720;47.462;19.030;2023-03-01T08:20:47;101310.34;;;7.65;56.54
57904;BME280;43720;47.462;19.030;2023-03-01T08:23:50;101309.22;;;7.58;55.53
57904;BME280;43720;47.462;19.030;2023-03-01T08:26:52;101304.06;;;7.80;56.39
57904;BME280;43720;47.462;19.030;2023-03-01T08:29:54;101294.34;;;7.76;55.08
57904;BME280;43720;47.462;19.030;2023-03-01T08:32:57;101301.63;;;8.06;55.81
57904;BME280;43720;47.462;19.030;2023-03-01T08:36:05;101292.09;;;8.29;54.01
57904;BME280;43720;47.462;19.030;2023-03-01T08:39:10;101289.97;;;8.64;53.43
57904;BME280;43720;47.462;19.030;2023-03-01T08:42:13;101293.91;;;8.76;52.88
57904;BME280;43720;47.462;19.030;2023-03-01T08:45:15;101295.53;;;8.74;52.74
57904;BME280;43720;47.462;19.030;2023-03-01T08:48:20;101286.81;;;8.72;53.19
57904;BME280;43720;47.462;19.030;2023-03-01T08:51:23;101284.41;;;8.54;53.25
57904;BME280;43720;47.462;19.030;2023-03-01T08:54:26;101286.66;;;8.45;54.45
57904;BME280;43720;47.462;19.030;2023-03-01T08:57:28;101281.91;;;8.35;54.76
57904;BME280;43720;47.462;19.030;2023-03-01T09:00:31;101278.41;;;8.57;53.49
57904;BME280;43720;47.462;19.030;2023-03-01T09:03:36;101266.44;;;8.62;53.92
57904;BME280;43720;47.462;19.030;2023-03-01T09:06:39;101267.87;;;8.78;51.83
57904;BME280;43720;47.462;19.030;2023-03-01T09:09:42;101266.31;;;9.07;51.97
57904;BME280;43720;47.462;19.030;2023-03-01T09:12:45;101265.47;;;9.34;51.75
57904;BME280;43720;47.462;19.030;2023-03-01T09:15:47;101262.31;;;9.44;51.17
57904;BME280;43720;47.462;19.030;2023-03-01T09:18:51;101258.31;;;9.53;50.98
57904;BME280;43720;47.462;19.030;2023-03-01T09:21:54;101269.50;;;9.49;51.69
57904;BME280;43720;47.462;19.030;2023-03-01T09:24:58;101252.22;;;9.80;52.19
57904;BME280;43720;47.462;19.030;2023-03-01T09:28:01;101246.63;;;9.69;50.32
57904;BME280;43720;47.462;19.030;2023-03-01T09:31:03;101231.75;;;9.40;51.50
57904;BME280;43720;47.462;19.030;2023-03-01T09:34:06;101236.16;;;9.15;51.39
57904;BME280;43720;47.462;19.030;2023-03-01T09:37:09;101239.28;;;9.30;52.70
57904;BME280;43720;47.462;19.030;2023-03-01T09:40:14;101230.00;;;9.40;52.33
57904;BME280;43720;47.462;19.030;2023-03-01T09:43:23;101220.44;;;9.14;51.17
57904;BME280;43720;47.462;19.030;2023-03-01T09:46:27;101217.56;;;9.31;50.99
57904;BME280;43720;47.462;19.030;2023-03-01T09:49:33;101212.22;;;9.54;51.61
57904;BME280;43720;47.462;19.030;2023-03-01T09:55:43;101215.25;;;9.41;51.96
57904;BME280;43720;47.462;19.030;2023-03-01T10:08:51;101210.28;;;10.04;50.49
57904;BME280;43720;47.462;19.030;2023-03-01T10:11:56;101200.75;;;9.77;50.46
57904;BME280;43720;47.462;19.030;2023-03-01T10:15:16;101195.34;;;10.00;51.50
57904;BME280;43720;47.462;19.030;2023-03-01T10:18:22;101193.59;;;9.99;49.90
57904;BME280;43720;47.462;19.030;2023-03-01T10:21:28;101187.44;;;9.68;51.04
57904;BME280;43720;47.462;19.030;2023-03-01T10:24:35;101178.38;;;9.86;50.87
57904;BME280;43720;47.462;19.030;2023-03-01T10:27:54;101169.97;;;9.39;50.87
57904;BME280;43720;47.462;19.030;2023-03-01T10:30:58;101177.00;;;9.68;51.51
57904;BME280;43720;47.462;19.030;2023-03-01T10:34:01;101165.87;;;9.75;50.51
57904;BME280;43720;47.462;19.030;2023-03-01T10:37:16;101161.38;;;9.43;51.17
57904;BME280;43720;47.462;19.030;2023-03-01T10:40:20;101154.78;;;9.54;51.18
57904;BME280;43720;47.462;19.030;2023-03-01T10:43:24;101160.47;;;9.69;51.42
57904;BME280;43720;47.462;19.030;2023-03-01T10:46:32;101149.03;;;9.64;50.63
57904;BME280;43720;47.462;19.030;2023-03-01T10:49:35;101142.19;;;9.69;50.77
57904;BME280;43720;47.462;19.030;2023-03-01T10:52:40;101136.03;;;9.67;50.78
57904;BME280;43720;47.462;19.030;2023-03-01T10:55:43;101132.06;;;9.51;52.64
57904;BME280;43720;47.462;19.030;2023-03-01T11:02:40;101118.66;;;9.98;50.69
57904;BME280;43720;47.462;19.030;2023-03-01T11:09:18;101114.41;;;10.32;49.64
57904;BME280;43720;47.462;19.030;2023-03-01T11:12:21;101113.94;;;10.46;49.08
57904;BME280;43720;47.462;19.030;2023-03-01T11:15:28;101110.28;;;10.73;48.26
57904;BME280;43720;47.462;19.030;2023-03-01T11:18:30;101104.69;;;10.59;48.05
57904;BME280;43720;47.462;19.030;2023-03-01T11:22:10;101094.03;;;10.85;48.68
57904;BME280;43720;47.462;19.030;2023-03-01T11:25:14;101095.44;;;11.46;47.26
57904;BME280;43720;47.462;19.030;2023-03-01T11:28:19;101083.88;;;11.75;45.63
57904;BME280;43720;47.462;19.030;2023-03-01T11:31:23;101091.53;;;12.07;46.68
57904;BME280;43720;47.462;19.030;2023-03-01T11:34:54;101085.94;;;12.34;46.46
57904;BME280;43720;47.462;19.030;2023-03-01T11:41:08;101083.44;;;12.42;44.21
57904;BME280;43720;47.462;19.030;2023-03-01T11:44:25;101082.47;;;12.35;45.28
57904;BME280;43720;47.462;19.030;2023-03-01T11:47:47;101070.63;;;12.10;45.10
57904;BME280;43720;47.462;19.030;2023-03-01T11:51:02;101073.16;;;12.06;45.63
57904;BME280;43720;47.462;19.030;2023-03-01T12:07:00;101070.91;;;12.74;46.20
57904;BME280;43720;47.462;19.030;2023-03-01T12:10:23;101073.41;;;12.66;45.97
57904;BME280;43720;47.462;19.030;2023-03-01T12:20:17;101048.00;;;12.65;46.68
57904;BME280;43720;47.462;19.030;2023-03-01T12:26:35;101025.88;;;13.03;45.50
57904;BME280;43720;47.462;19.030;2023-03-01T12:32:53;101024.78;;;13.48;42.94
57904;BME280;43720;47.462;19.030;2023-03-01T12:39:47;101007.91;;;13.32;43.17
57904;BME280;43720;47.462;19.030;2023-03-01T12:46:32;101016.16;;;12.97;43.96
57904;BME280;43720;47.462;19.030;2023-03-01T12:49:43;101008.72;;;12.68;45.34
57904;BME280;43720;47.462;19.030;2023-03-01T12:52:52;101006.22;;;12.78;43.90
57904;BME280;43720;47.462;19.030;2023-03-01T12:56:04;101013.72;;;12.53;44.21
57904;BME280;43720;47.462;19.030;2023-03-01T12:59:25;101010.81;;;12.36;44.13
57904;BME280;43720;47.462;19.030;2023-03-01T13:02:37;101005.50;;;12.33;44.62
57904;BME280;43720;47.462;19.030;2023-03-01T13:09:35;100998.81;;;12.51;44.83
57904;BME280;43720;47.462;19.030;2023-03-01T13:13:03;101001.03;;;12.81;45.16
57904;BME280;43720;47.462;19.030;2023-03-01T13:19:31;100991.69;;;12.98;44.93
57904;BME280;43720;47.462;19.030;2023-03-01T13:22:38;100998.34;;;13.34;44.60
57904;BME280;43720;47.462;19.030;2023-03-01T13:26:08;100981.75;;;13.36;44.35
57904;BME280;43720;47.462;19.030;2023-03-01T13:29:26;100967.38;;;13.11;43.92
57904;BME280;43720;47.462;19.030;2023-03-01T13:32:30;100966.38;;;13.05;43.60
57904;BME280;43720;47.462;19.030;2023-03-01T13:35:46;100966.34;;;13.00;44.53
57904;BME280;43720;47.462;19.030;2023-03-01T13:41:58;100960.91;;;12.88;43.53
57904;BME280;43720;47.462;19.030;2023-03-01T13:45:02;100961.50;;;12.68;44.01
57904;BME280;43720;47.462;19.030;2023-03-01T13:48:11;100961.38;;;12.59;44.21
57904;BME280;43720;47.462;19.030;2023-03-01T13:51:23;100951.38;;;12.37;44.85
57904;BME280;43720;47.462;19.030;2023-03-01T13:54:31;100946.84;;;12.25;45.07
57904;BME280;43720;47.462;19.030;2023-03-01T13:57:35;100951.25;;;12.29;45.64
57904;BME280;43720;47.462;19.030;2023-03-01T14:00:41;100947.69;;;12.24;45.68
57904;BME280;43720;47.462;19.030;2023-03-01T14:03:43;100944.19;;;12.23;45.75
57904;BME280;43720;47.462;19.030;2023-03-01T14:06:45;100941.66;;;12.30;45.71
57904;BME280;43720;47.462;19.030;2023-03-01T14:09:52;100939.91;;;12.29;45.46
57904;BME280;43720;47.462;19.030;2023-03-01T14:19:48;100913.50;;;12.16;46.19
57904;BME280;43720;47.462;19.030;2023-03-01T14:22:59;100913.62;;;12.26;46.95
57904;BME280;43720;47.462;19.030;2023-03-01T14:26:02;100917.28;;;12.35;47.03
57904;BME280;43720;47.462;19.030;2023-03-01T14:29:05;100913.62;;;12.27;47.14
57904;BME280;43720;47.462;19.030;2023-03-01T14:32:15;100908.31;;;12.22;47.14
57904;BME280;43720;47.462;19.030;2023-03-01T14:35:31;100899.53;;;12.19;46.99
57904;BME280;43720;47.462;19.030;2023-03-01T14:38:45;100897.72;;;12.13;46.67
57904;BME280;43720;47.462;19.030;2023-03-01T14:41:48;100893.66;;;12.34;46.56
57904;BME280;43720;47.462;19.030;2023-03-01T14:44:51;100889.97;;;12.22;46.10
57904;BME280;43720;47.462;19.030;2023-03-01T14:47:59;100882.16;;;12.24;46.63
57904;BME280;43720;47.462;19.030;2023-03-01T14:51:05;100877.44;;;12.03;47.52
57904;BME280;43720;47.462;19.030;2023-03-01T14:54:24;100879.09;;;11.98;47.15
57904;BME280;43720;47.462;19.030;2023-03-01T14:57:27;100883.28;;;11.88;47.31
57904;BME280;43720;47.462;19.030;2023-03-01T15:00:31;100884.97;;;11.83;47.18
57904;BME280;43720;47.462;19.030;2023-03-01T15:03:45;100879.78;;;11.86;47.01
57904;BME280;43720;47.462;19.030;2023-03-01T15:06:51;100879.09;;;11.96;47.65
57904;BME280;43720;47.462;19.030;2023-03-01T15:09:53;100871.31;;;12.01;48.30
57904;BME280;43720;47.462;19.030;2023-03-01T15:13:10;100870.31;;;11.96;47.74
57904;BME280;43720;47.462;19.030;2023-03-01T15:16:12;100871.34;;;12.04;47.68
57904;BME280;43720;47.462;19.030;2023-03-01T15:19:17;100873.00;;;11.97;47.69
57904;BME280;43720;47.462;19.030;2023-03-01T15:22:20;100868.56;;;11.93;48.16
57904;BME280;43720;47.462;19.030;2023-03-01T15:25:28;100873.75;;;11.92;47.83
57904;BME280;43720;47.462;19.030;2023-03-01T15:28:34;100878.78;;;11.81;48.82
57904;BME280;43720;47.462;19.030;2023-03-01T15:31:39;100876.91;;;11.74;49.74
57904;BME280;43720;47.462;19.030;2023-03-01T15:34:41;100878.59;;;11.70;49.92
57904;BME280;43720;47.462;19.030;2023-03-01T15:37:46;100877.47;;;11.56;50.62
57904;BME280;43720;47.462;19.030;2023-03-01T15:40:51;100880.87;;;11.52;49.66
57904;BME280;43720;47.462;19.030;2023-03-01T15:43:54;100879.28;;;11.60;50.45
57904;BME280;43720;47.462;19.030;2023-03-01T15:46:58;100875.72;;;11.57;49.81
57904;BME280;43720;47.462;19.030;2023-03-01T15:50:00;100879.22;;;11.57;50.12
57904;BME280;43720;47.462;19.030;2023-03-01T15:53:11;100878.75;;;11.33;52.31
57904;BME280;43720;47.462;19.030;2023-03-01T15:56:14;100882.25;;;11.32;51.27
57904;BME280;43720;47.462;19.030;2023-03-01T15:59:17;100878.75;;;11.33;50.97
57904;BME280;43720;47.462;19.030;2023-03-01T16:02:20;100878.47;;;11.19;50.56
57904;BME280;43720;47.462;19.030;2023-03-01T16:08:26;100888.53;;;10.99;52.23
57904;BME280;43720;47.462;19.030;2023-03-01T16:11:28;100899.59;;;10.86;52.75
57904;BME280;43720;47.462;19.030;2023-03-01T16:14:30;100886.47;;;10.83;52.31
57904;BME280;43720;47.462;19.030;2023-03-01T16:17:33;100893.25;;;10.73;52.94
57904;BME280;43720;47.462;19.030;2023-03-01T16:20:35;100888.50;;;10.57;54.24
57904;BME280;43720;47.462;19.030;2023-03-01T16:23:37;100891.84;;;10.49;54.65
57904;BME280;43720;47.462;19.030;2023-03-01T16:26:40;100892.31;;;10.33;54.93
57904;BME280;43720;47.462;19.030;2023-03-01T16:29:42;100895.53;;;10.23;55.09
57904;BME280;43720;47.462;19.030;2023-03-01T16:32:45;100906.59;;;10.13;56.64
57904;BME280;43720;47.462;19.030;2023-03-01T16:35:48;100910.84;;;10.09;55.61
57904;BME280;43720;47.462;19.030;2023-03-01T16:38:51;100912.47;;;10.04;56.47
57904;BME280;43720;47.462;19.030;2023-03-01T16:41:54;100914.91;;;9.96;56.16
57904;BME280;43720;47.462;19.030;2023-03-01T16:44:56;100918.84;;;9.80;58.74
57904;BME280;43720;47.462;19.030;2023-03-01T16:47:59;100924.87;;;9.79;58.35
57904;BME280;43720;47.462;19.030;2023-03-01T16:51:01;100921.25;;;9.73;58.00
57904;BME280;43720;47.462;19.030;2023-03-01T16:54:04;100926.28;;;9.67;57.93
57904;BME280;43720;47.462;19.030;2023-03-01T16:57:06;100925.41;;;9.66;58.98
